createdAt,value
2018-12-05T17:26:35.247Z,83.25
2018-12-05T17:29:04.374Z,92.97
2018-12-05T17:31:32.495Z,97.25
2018-12-05T17:34:01.238Z,105.07
2018-12-05T17:36:29.478Z,85.65
2018-12-05T17:38:57.589Z,90.30
2018-12-05T17:41:26.403Z,84.62
2018-12-05T17:43:54.975Z,82.37
2018-12-05T17:46:23.775Z,86.42
2018-12-05T17:48:52.555Z,88.45
2018-12-05T17:51:21.252Z,87.95
2018-12-05T17:53:49.917Z,81.22
2018-12-05T17:56:18.615Z,81.95
2018-12-05T17:58:47.104Z,78.90
2018-12-05T18:01:15.805Z,76.97
2018-12-05T18:03:43.858Z,66.50
2018-12-05T18:06:11.987Z,77.53
2018-12-05T18:08:40.915Z,77.97
2018-12-05T18:11:09.733Z,74.15
2018-12-05T18:13:37.819Z,67.60
2018-12-05T18:16:05.975Z,61.80
2018-12-05T18:18:34.234Z,72.42
2018-12-05T18:21:02.438Z,62.80
2018-12-05T18:25:33.600Z,56.88
2018-12-05T18:33:35.421Z,57.58
2018-12-05T18:38:39.377Z,62.93
2018-12-05T18:43:41.631Z,70.32
2018-12-05T18:48:44.661Z,73.80
2018-12-05T18:51:15.838Z,77.10
2018-12-05T18:55:11.974Z,78.55
2018-12-05T18:57:43.034Z,103.02
2018-12-05T19:02:45.295Z,113.77
2018-12-05T19:07:47.223Z,127.78
2018-12-05T19:12:49.457Z,142.37
2018-12-05T19:17:52.741Z,92.95
2018-12-05T19:22:51.419Z,95.05
2018-12-05T19:27:50.374Z,89.40
2018-12-05T19:32:48.137Z,80.72
2018-12-05T19:37:46.027Z,92.55
2018-12-05T19:42:44.276Z,76.12
2018-12-05T19:47:42.304Z,88.75
2018-12-05T19:52:39.859Z,83.05
2018-12-05T19:57:37.974Z,86.60
2018-12-05T20:02:43.175Z,76.02
2018-12-05T20:07:42.878Z,93.10
2018-12-05T20:12:45.293Z,81.10
2018-12-05T20:17:48.769Z,84.80
2018-12-05T20:22:47.734Z,80.97
2018-12-05T20:25:18.696Z,85.20
2018-12-05T20:30:27.736Z,96.90
2018-12-05T20:37:29.427Z,87.42
2018-12-05T20:42:33.100Z,107.70
2018-12-05T20:47:43.219Z,99.97
2018-12-05T20:52:46.458Z,87.10
2018-12-05T20:57:44.094Z,83.25
2018-12-05T21:02:40.634Z,76.00
2018-12-05T21:07:43.215Z,97.40
2018-12-05T21:12:43.415Z,87.78
2018-12-05T21:17:42.524Z,88.17
2018-12-05T21:20:14.138Z,86.15
2018-12-05T21:25:15.088Z,87.17
2018-12-05T21:30:17.506Z,94.20
2018-12-05T21:35:15.227Z,111.22
2018-12-05T21:40:17.178Z,93.92
2018-12-05T21:45:20.565Z,81.25
2018-12-05T21:50:21.577Z,79.70
2018-12-05T21:55:19.253Z,77.55
2018-12-05T22:00:26.947Z,78.10
2018-12-05T22:02:58.266Z,72.58
2018-12-05T22:08:16.025Z,72.90
2018-12-05T22:13:14.706Z,81.02
2018-12-05T22:18:17.246Z,78.40
2018-12-05T22:23:16.227Z,80.00
2018-12-05T22:28:13.893Z,67.87
2018-12-05T22:33:11.594Z,111.77
2018-12-05T22:38:09.026Z,86.87
2018-12-05T22:43:06.782Z,107.60
2018-12-05T22:48:04.508Z,99.72
2018-12-05T22:53:03.586Z,99.92
2018-12-05T22:58:07.066Z,95.87
2018-12-05T23:03:13.946Z,99.47
2018-12-05T23:08:12.147Z,98.85
2018-12-05T23:13:09.565Z,107.10
2018-12-05T23:18:07.027Z,93.50
2018-12-05T23:23:03.946Z,103.78
2018-12-05T23:28:06.587Z,97.40
2018-12-05T23:33:05.987Z,90.60
2018-12-05T23:38:08.067Z,82.80
2018-12-05T23:43:05.766Z,79.50
2018-12-05T23:48:04.585Z,78.10
2018-12-05T23:53:07.837Z,81.72
2018-12-05T23:58:10.904Z,80.92
